createdAt,value
2022-10-23T00:01:52.212Z,65.31
2022-10-23T00:04:23.592Z,64.85
2022-10-23T00:06:52.714Z,66.43
2022-10-23T00:09:25.951Z,66.68
2022-10-23T00:11:55.316Z,66.39
2022-10-23T00:14:26.014Z,68.23
2022-10-23T00:16:55.056Z,69.94
2022-10-23T00:19:23.737Z,69.36
2022-10-23T00:21:52.943Z,68.00
2022-10-23T00:24:21.587Z,65.97
2022-10-23T00:26:53.449Z,71.19
2022-10-23T00:29:22.818Z,67.32
2022-10-23T00:31:51.578Z,72.59
2022-10-23T00:34:21.206Z,69.83
2022-10-23T00:36:49.813Z,74.17
2022-10-23T00:39:18.716Z,71.91
2022-10-23T00:41:47.553Z,70.95
2022-10-23T00:44:19.711Z,74.68
2022-10-23T00:46:49.033Z,72.07
2022-10-23T00:49:18.554Z,71.22
2022-10-23T00:51:58.425Z,71.10
2022-10-23T00:54:32.557Z,70.07
2022-10-23T00:57:04.724Z,67.81
2022-10-23T00:59:34.592Z,67.37
2022-10-23T01:02:03.342Z,67.83
2022-10-23T01:04:33.275Z,66.69
2022-10-23T01:07:04.950Z,68.96
2022-10-23T01:09:51.404Z,68.26
2022-10-23T01:12:36.196Z,68.90
2022-10-23T01:15:46.443Z,68.14
2022-10-23T01:18:46.051Z,66.77
2022-10-23T01:21:39.063Z,67.49
2022-10-23T01:24:39.973Z,67.32
2022-10-23T01:27:17.781Z,66.88
2022-10-23T01:29:52.411Z,66.63
2022-10-23T01:32:40.186Z,62.53
2022-10-23T01:35:41.887Z,64.18
2022-10-23T01:38:17.913Z,61.62
2022-10-23T01:41:12.518Z,62.05
2022-10-23T01:44:10.488Z,60.81
2022-10-23T01:46:41.030Z,60.46
2022-10-23T01:49:14.282Z,59.58
2022-10-23T01:51:47.898Z,58.07
2022-10-23T01:54:20.730Z,57.94
2022-10-23T01:56:52.849Z,58.43
2022-10-23T01:59:33.729Z,58.53
2022-10-23T02:02:05.964Z,58.11
2022-10-23T02:04:42.687Z,57.17
2022-10-23T02:07:11.504Z,56.30
2022-10-23T02:09:40.806Z,54.51
2022-10-23T02:12:19.054Z,55.27
2022-10-23T02:14:58.843Z,53.40
2022-10-23T02:17:59.554Z,51.10
2022-10-23T02:20:30.870Z,50.41
2022-10-23T02:23:21.148Z,50.44
2022-10-23T02:26:08.467Z,51.77
2022-10-23T02:28:50.770Z,48.75
2022-10-23T02:31:23.572Z,47.85
2022-10-23T02:33:53.022Z,47.47
2022-10-23T02:36:21.758Z,47.07
2022-10-23T02:38:50.941Z,48.82
2022-10-23T02:41:38.264Z,47.94
2022-10-23T02:44:39.537Z,46.34
2022-10-23T02:47:32.435Z,49.51
2022-10-23T02:50:24.500Z,47.66
2022-10-23T02:53:00.058Z,45.06
2022-10-23T02:55:49.883Z,45.00
2022-10-23T02:58:43.289Z,46.23
2022-10-23T03:01:23.669Z,46.08
2022-10-23T03:04:00.664Z,44.18
2022-10-23T03:06:29.662Z,42.60
2022-10-23T03:09:08.683Z,43.08
2022-10-23T03:11:37.820Z,45.50
2022-10-23T03:14:06.510Z,44.59
2022-10-23T03:16:35.356Z,44.33
2022-10-23T03:19:04.123Z,43.29
2022-10-23T03:21:32.967Z,44.00
2022-10-23T03:24:03.336Z,42.38
2022-10-23T03:26:40.193Z,43.47
2022-10-23T03:29:09.349Z,41.07
2022-10-23T03:31:43.770Z,44.11
2022-10-23T03:34:12.899Z,43.53
2022-10-23T03:36:42.745Z,43.23
2022-10-23T03:39:12.543Z,41.87
2022-10-23T03:41:41.384Z,42.17
2022-10-23T03:44:11.358Z,42.28
2022-10-23T03:46:45.854Z,45.53
2022-10-23T03:49:14.831Z,42.45
2022-10-23T03:51:52.727Z,41.64
2022-10-23T03:54:28.314Z,43.72
2022-10-23T03:56:57.733Z,46.75
2022-10-23T03:59:28.509Z,44.44
2022-10-23T04:01:57.520Z,46.33
2022-10-23T04:04:26.891Z,45.56
2022-10-23T04:06:55.853Z,48.78
2022-10-23T04:09:25.433Z,47.08
2022-10-23T04:11:56.771Z,44.05
2022-10-23T04:14:29.218Z,48.82
2022-10-23T04:16:58.500Z,48.46
2022-10-23T04:19:29.434Z,53.56
2022-10-23T04:21:58.830Z,50.51
2022-10-23T04:24:28.328Z,55.07
2022-10-23T04:26:57.795Z,50.47
2022-10-23T04:29:32.652Z,51.94
2022-10-23T04:32:01.690Z,52.21
2022-10-23T04:34:30.319Z,50.88
2022-10-23T04:36:59.389Z,51.75
2022-10-23T04:39:28.473Z,50.91
2022-10-23T04:41:57.342Z,54.20
2022-10-23T04:44:27.178Z,56.34
2022-10-23T04:46:56.070Z,53.74
2022-10-23T04:49:25.915Z,48.55
2022-10-23T04:52:13.001Z,52.40
2022-10-23T04:55:05.022Z,54.18
2022-10-23T04:57:43.281Z,52.63
2022-10-23T05:00:16.199Z,52.64
2022-10-23T05:02:54.837Z,47.77
2022-10-23T05:05:25.261Z,52.49
2022-10-23T05:07:54.237Z,53.22
2022-10-23T05:10:28.776Z,50.78
2022-10-23T05:13:07.092Z,49.90
2022-10-23T05:15:36.202Z,49.09
2022-10-23T05:18:15.178Z,47.69
2022-10-23T05:20:46.953Z,48.04
2022-10-23T05:23:19.523Z,47.14
2022-10-23T05:25:56.175Z,44.11
2022-10-23T05:28:25.356Z,41.39
2022-10-23T05:30:54.207Z,42.78
2022-10-23T05:33:28.377Z,42.13
2022-10-23T05:35:58.195Z,42.09
2022-10-23T05:38:29.037Z,43.68
2022-10-23T05:40:58.311Z,37.33
2022-10-23T05:43:28.175Z,40.53
2022-10-23T05:46:11.334Z,38.67
2022-10-23T05:49:09.541Z,37.35
2022-10-23T05:51:50.467Z,39.64
2022-10-23T05:54:34.618Z,35.07
2022-10-23T05:57:22.127Z,35.76
2022-10-23T05:59:53.361Z,36.10
2022-10-23T06:02:42.203Z,32.27
2022-10-23T06:05:33.605Z,38.88
2022-10-23T06:08:20.672Z,35.28
2022-10-23T06:10:51.974Z,35.79
2022-10-23T06:13:21.407Z,35.31
2022-10-23T06:15:50.106Z,34.86
2022-10-23T06:18:25.900Z,33.45
2022-10-23T06:21:02.637Z,35.37
2022-10-23T06:23:33.450Z,33.51
2022-10-23T06:26:13.401Z,32.10
2022-10-23T06:29:02.614Z,32.76
2022-10-23T06:31:31.903Z,31.57
2022-10-23T06:34:01.359Z,31.95
2022-10-23T06:36:32.076Z,31.18
2022-10-23T06:39:09.360Z,32.10
2022-10-23T06:41:58.631Z,32.24
2022-10-23T06:44:53.775Z,30.84
2022-10-23T06:47:46.049Z,32.74
2022-10-23T06:50:53.220Z,30.92
2022-10-23T06:53:30.986Z,31.37
2022-10-23T06:56:10.012Z,32.18
2022-10-23T06:58:40.342Z,34.63
2022-10-23T07:01:17.612Z,31.89
2022-10-23T07:03:49.081Z,26.14
2022-10-23T07:06:22.722Z,32.38
2022-10-23T07:08:52.098Z,30.89
2022-10-23T07:11:43.887Z,33.96
2022-10-23T07:14:13.750Z,31.55
2022-10-23T07:16:43.963Z,29.02
2022-10-23T07:19:12.717Z,30.76
2022-10-23T07:22:05.658Z,31.90
2022-10-23T07:24:50.495Z,33.04
2022-10-23T07:27:39.463Z,30.21
2022-10-23T07:30:11.391Z,29.61
2022-10-23T07:32:47.195Z,34.89
2022-10-23T07:35:28.107Z,30.85
2022-10-23T07:38:05.196Z,34.70
2022-10-23T07:40:38.620Z,34.27
2022-10-23T07:43:10.735Z,29.20
2022-10-23T07:45:40.808Z,28.52
2022-10-23T07:48:18.171Z,28.14
2022-10-23T07:51:02.462Z,27.71
2022-10-23T07:53:32.600Z,27.98
2022-10-23T07:56:16.074Z,27.54
2022-10-23T07:59:03.083Z,29.13
2022-10-23T08:01:38.173Z,30.10
2022-10-23T08:04:08.067Z,31.66
2022-10-23T08:06:42.179Z,28.83
2022-10-23T08:09:11.310Z,27.16
2022-10-23T08:11:43.085Z,27.49
2022-10-23T08:14:16.745Z,23.98
2022-10-23T08:16:47.606Z,28.33
2022-10-23T08:19:19.194Z,30.85
2022-10-23T08:21:50.999Z,29.97
2022-10-23T08:24:20.408Z,29.77
2022-10-23T08:26:51.715Z,27.84
2022-10-23T08:29:24.707Z,27.46
2022-10-23T08:31:58.367Z,33.14
2022-10-23T08:34:32.444Z,28.77
2022-10-23T08:37:04.563Z,23.01
2022-10-23T08:39:36.124Z,27.59
2022-10-23T08:42:25.091Z,31.61
2022-10-23T08:45:30.651Z,28.78
2022-10-23T08:48:31.721Z,29.47
2022-10-23T08:51:48.389Z,30.49
2022-10-23T08:54:40.646Z,30.20
2022-10-23T08:57:18.886Z,33.81
2022-10-23T09:00:01.535Z,28.62
2022-10-23T09:02:48.860Z,29.90
2022-10-23T09:05:48.899Z,29.71
2022-10-23T09:08:17.949Z,29.68
2022-10-23T09:11:30.884Z,29.08
2022-10-23T09:14:29.734Z,34.22
2022-10-23T09:17:28.471Z,29.71
2022-10-23T09:20:01.756Z,31.20
2022-10-23T09:22:30.747Z,30.23
2022-10-23T09:24:59.365Z,29.99
2022-10-23T09:27:28.730Z,30.37
2022-10-23T09:29:57.703Z,31.29
2022-10-23T09:32:38.783Z,31.44
2022-10-23T09:35:08.723Z,29.65
2022-10-23T09:37:46.369Z,29.76
2022-10-23T09:40:44.489Z,24.11
2022-10-23T09:43:24.464Z,27.66
2022-10-23T09:46:02.442Z,30.50
2022-10-23T09:48:34.110Z,29.11
2022-10-23T09:51:20.230Z,32.09
2022-10-23T09:53:56.160Z,30.08
2022-10-23T09:56:25.112Z,30.25
2022-10-23T09:59:06.905Z,30.89
2022-10-23T10:01:46.336Z,29.52
2022-10-23T10:04:39.612Z,31.27
2022-10-23T10:07:21.246Z,32.65
2022-10-23T10:09:51.199Z,30.56
2022-10-23T10:13:14.820Z,30.99
2022-10-23T10:15:54.648Z,30.76
2022-10-23T10:18:38.355Z,32.19
2022-10-23T10:21:20.002Z,30.56
2022-10-23T10:23:57.448Z,28.94
2022-10-23T10:26:53.671Z,34.92
2022-10-23T10:29:57.880Z,34.96
2022-10-23T10:32:58.365Z,32.18
2022-10-23T10:36:00.718Z,30.14
2022-10-23T10:38:47.862Z,27.32
2022-10-23T10:41:46.318Z,29.74
2022-10-23T10:44:30.787Z,30.08
2022-10-23T10:47:20.169Z,27.92
2022-10-23T10:50:17.518Z,29.28
2022-10-23T10:53:43.759Z,30.27
2022-10-23T10:56:20.045Z,30.89
2022-10-23T10:59:05.989Z,31.01
2022-10-23T11:01:55.423Z,32.26
2022-10-23T11:04:30.640Z,32.07
2022-10-23T11:07:05.732Z,37.64
2022-10-23T11:09:34.790Z,34.02
2022-10-23T11:12:03.679Z,36.59
2022-10-23T11:14:35.755Z,40.26
2022-10-23T11:17:17.985Z,39.84
2022-10-23T11:19:53.566Z,44.25
2022-10-23T11:22:29.649Z,40.76
2022-10-23T11:25:17.053Z,36.03
2022-10-23T11:28:10.773Z,37.20
2022-10-23T11:30:43.582Z,36.33
2022-10-23T11:33:30.512Z,36.79
2022-10-23T11:36:20.806Z,34.73
2022-10-23T11:38:53.201Z,37.00
2022-10-23T11:41:29.450Z,49.90
2022-10-23T11:44:06.610Z,50.15
2022-10-23T11:46:40.273Z,51.05
2022-10-23T11:49:22.020Z,50.54
2022-10-23T11:52:02.350Z,50.48
2022-10-23T11:54:31.518Z,53.17
2022-10-23T11:57:10.555Z,52.29
2022-10-23T11:59:55.727Z,54.99
2022-10-23T12:02:44.037Z,54.22
2022-10-23T12:05:37.163Z,55.17
2022-10-23T12:08:10.165Z,57.26
2022-10-23T12:10:47.999Z,58.17
2022-10-23T12:13:38.950Z,59.40
2022-10-23T12:16:08.586Z,59.16
2022-10-23T12:18:52.970Z,53.55
2022-10-23T12:21:30.387Z,56.77
2022-10-23T12:24:11.229Z,58.56
2022-10-23T12:27:12.885Z,49.35
2022-10-23T12:30:12.254Z,53.47
2022-10-23T12:32:41.482Z,55.44
2022-10-23T12:35:33.776Z,51.54
2022-10-23T12:38:20.115Z,52.28
2022-10-23T12:41:02.229Z,51.04
2022-10-23T12:43:37.316Z,51.83
2022-10-23T12:46:28.089Z,50.32
2022-10-23T12:48:58.015Z,48.70
2022-10-23T12:51:36.807Z,50.95
2022-10-23T12:54:17.146Z,48.85
2022-10-23T12:56:47.109Z,52.09
2022-10-23T12:59:19.631Z,50.87
2022-10-23T13:01:52.581Z,50.29
2022-10-23T13:04:31.404Z,51.05
2022-10-23T13:07:03.096Z,52.38
2022-10-23T13:09:43.144Z,52.31
2022-10-23T13:12:28.128Z,51.46
2022-10-23T13:15:17.293Z,52.27
2022-10-23T13:18:03.429Z,53.04
2022-10-23T13:20:38.884Z,49.90
2022-10-23T13:23:32.146Z,51.64
2022-10-23T13:26:07.388Z,52.20
2022-10-23T13:28:44.652Z,51.01
2022-10-23T13:31:13.418Z,52.72
2022-10-23T13:33:44.934Z,50.85
2022-10-23T13:36:18.219Z,51.89
2022-10-23T13:39:03.750Z,51.93
2022-10-23T13:41:40.275Z,49.66
2022-10-23T13:44:11.650Z,50.09
2022-10-23T13:46:41.263Z,50.15
2022-10-23T13:49:10.583Z,51.44
2022-10-23T13:51:57.889Z,51.65
2022-10-23T13:56:58.668Z,50.88
2022-10-23T13:59:27.494Z,51.20
2022-10-23T14:01:56.570Z,51.76
2022-10-23T14:04:25.558Z,50.80
2022-10-23T14:06:59.415Z,51.58
2022-10-23T14:09:28.795Z,51.89
2022-10-23T14:11:57.696Z,51.78
2022-10-23T14:14:27.313Z,53.31
2022-10-23T14:16:56.741Z,51.90
2022-10-23T14:19:25.554Z,51.66
2022-10-23T14:21:54.309Z,52.77
2022-10-23T14:24:23.822Z,52.71
2022-10-23T14:26:52.554Z,52.75
2022-10-23T14:29:24.111Z,52.87
2022-10-23T14:31:53.712Z,52.79
2022-10-23T14:34:22.353Z,53.14
2022-10-23T14:37:03.762Z,53.33
2022-10-23T14:39:37.278Z,52.94
2022-10-23T14:42:06.033Z,54.87
2022-10-23T14:44:34.909Z,53.24
2022-10-23T14:47:04.243Z,53.00
2022-10-23T14:49:34.288Z,53.69
2022-10-23T14:52:03.227Z,57.17
2022-10-23T14:54:34.047Z,56.10
2022-10-23T14:57:03.347Z,56.98
2022-10-23T14:59:32.105Z,56.27
2022-10-23T15:02:01.204Z,55.63
2022-10-23T15:04:29.908Z,55.52
2022-10-23T15:06:58.981Z,56.39
2022-10-23T15:09:27.758Z,52.80
2022-10-23T15:11:56.843Z,53.47
2022-10-23T15:14:25.785Z,52.89
2022-10-23T15:16:54.829Z,53.31
2022-10-23T15:19:23.587Z,53.15
2022-10-23T15:21:53.516Z,51.50
2022-10-23T15:24:22.771Z,52.90
2022-10-23T15:26:53.269Z,54.33
2022-10-23T15:29:22.363Z,54.73
2022-10-23T15:31:58.581Z,56.26
2022-10-23T15:34:30.105Z,55.45
2022-10-23T15:37:00.241Z,55.08
2022-10-23T15:39:34.655Z,54.71
2022-10-23T15:42:05.997Z,53.12
2022-10-23T15:44:36.021Z,52.70
2022-10-23T15:47:05.204Z,53.31
2022-10-23T15:49:34.406Z,52.94
2022-10-23T15:52:04.746Z,53.48
2022-10-23T15:54:33.856Z,53.21
2022-10-23T15:57:03.369Z,53.84
2022-10-23T15:59:33.379Z,53.58
2022-10-23T16:02:02.844Z,53.73
2022-10-23T16:04:34.077Z,52.38
2022-10-23T16:07:02.780Z,53.54
2022-10-23T16:09:31.739Z,52.36
2022-10-23T16:12:00.351Z,52.98
2022-10-23T16:14:29.379Z,53.11
2022-10-23T16:16:58.336Z,54.13
2022-10-23T16:19:27.278Z,55.62
2022-10-23T16:21:55.988Z,55.24
2022-10-23T16:24:24.868Z,54.50
2022-10-23T16:26:54.182Z,54.16
2022-10-23T16:29:24.532Z,53.29
2022-10-23T16:31:55.017Z,56.01
2022-10-23T16:34:24.305Z,51.11
2022-10-23T16:36:53.430Z,51.79
2022-10-23T16:39:22.966Z,51.86
2022-10-23T16:42:10.437Z,51.55
2022-10-23T16:44:59.590Z,50.92
2022-10-23T16:47:31.680Z,50.57
2022-10-23T16:50:00.597Z,55.44
2022-10-23T16:52:29.932Z,52.94
2022-10-23T16:54:58.775Z,51.52
2022-10-23T16:57:30.614Z,51.13
2022-10-23T16:59:59.418Z,50.92
2022-10-23T17:02:28.430Z,51.56
2022-10-23T17:04:57.527Z,50.09
2022-10-23T17:07:26.125Z,50.44
2022-10-23T17:09:55.052Z,49.92
2022-10-23T17:12:24.258Z,50.25
2022-10-23T17:14:53.161Z,49.58
2022-10-23T17:17:21.912Z,50.16
2022-10-23T17:19:50.836Z,50.50
2022-10-23T17:22:19.569Z,49.02
2022-10-23T17:24:51.444Z,49.94
2022-10-23T17:27:23.235Z,49.42
2022-10-23T17:29:51.908Z,48.47
2022-10-23T17:34:50.273Z,49.81
2022-10-23T17:37:19.107Z,49.28
2022-10-23T17:39:48.076Z,50.15
2022-10-23T17:42:17.030Z,50.63
2022-10-23T17:44:46.009Z,51.64
2022-10-23T17:47:15.115Z,51.63
2022-10-23T17:49:45.463Z,50.87
2022-10-23T17:52:15.991Z,52.70
2022-10-23T17:54:45.528Z,50.68
2022-10-23T17:57:14.398Z,51.33
2022-10-23T17:59:43.498Z,52.98
2022-10-23T18:02:14.984Z,52.88
2022-10-23T18:04:43.987Z,54.06
2022-10-23T18:07:13.925Z,55.86
2022-10-23T18:09:43.139Z,55.66
2022-10-23T18:12:11.855Z,57.84
2022-10-23T18:14:41.192Z,56.55
2022-10-23T18:17:09.846Z,57.14
2022-10-23T18:19:38.704Z,55.29
2022-10-23T18:22:07.432Z,56.20
2022-10-23T18:24:37.436Z,55.16
2022-10-23T18:27:06.109Z,54.37
2022-10-23T18:29:34.994Z,52.87
2022-10-23T18:32:03.799Z,53.22
2022-10-23T18:34:33.757Z,51.21
2022-10-23T18:37:02.697Z,48.28
2022-10-23T18:39:31.575Z,46.09
2022-10-23T18:42:00.534Z,47.36
2022-10-23T18:44:29.939Z,44.95
2022-10-23T18:47:00.738Z,47.01
2022-10-23T18:49:29.869Z,50.37
2022-10-23T18:51:59.429Z,48.82
2022-10-23T18:54:28.607Z,47.67
2022-10-23T18:56:57.389Z,46.93
2022-10-23T18:59:26.400Z,47.65
2022-10-23T19:01:55.547Z,48.08
2022-10-23T19:04:24.515Z,48.04
2022-10-23T19:06:53.564Z,47.43
2022-10-23T19:09:22.787Z,47.88
2022-10-23T19:11:51.455Z,47.45
2022-10-23T19:14:20.278Z,46.27
2022-10-23T19:17:10.948Z,46.07
2022-10-23T19:19:47.934Z,46.04
2022-10-23T19:22:18.135Z,46.46
2022-10-23T19:24:58.865Z,46.18
2022-10-23T19:27:29.117Z,46.36
2022-10-23T19:30:04.227Z,46.76
2022-10-23T19:32:33.195Z,46.69
2022-10-23T19:35:02.236Z,47.34
2022-10-23T19:37:31.204Z,48.21
2022-10-23T19:39:59.971Z,48.88
2022-10-23T19:42:28.815Z,49.62
2022-10-23T19:44:57.462Z,50.44
2022-10-23T19:47:26.612Z,50.88
2022-10-23T19:49:55.269Z,50.79
2022-10-23T19:52:24.342Z,50.58
2022-10-23T19:54:53.089Z,50.30
2022-10-23T19:57:22.722Z,51.15
2022-10-23T19:59:53.138Z,50.70
2022-10-23T20:02:22.103Z,48.26
2022-10-23T20:04:51.297Z,49.04
2022-10-23T20:07:20.114Z,51.13
2022-10-23T20:09:48.916Z,50.78
2022-10-23T20:12:17.662Z,49.75
2022-10-23T20:14:46.452Z,50.18
2022-10-23T20:17:15.307Z,50.29
2022-10-23T20:19:45.549Z,49.68
2022-10-23T20:22:14.459Z,50.84
2022-10-23T20:24:43.256Z,51.70
2022-10-23T20:27:14.781Z,51.70
2022-10-23T20:29:45.689Z,52.16
2022-10-23T20:32:16.460Z,52.06
2022-10-23T20:34:45.421Z,53.15
2022-10-23T20:37:14.270Z,52.02
2022-10-23T20:39:43.806Z,52.39
2022-10-23T20:42:12.452Z,54.92
2022-10-23T20:44:41.596Z,54.04
2022-10-23T20:47:10.247Z,55.07
2022-10-23T20:49:39.512Z,57.07
2022-10-23T20:52:08.162Z,56.76
2022-10-23T20:54:39.023Z,57.84
2022-10-23T20:57:07.749Z,58.03
2022-10-23T20:59:36.703Z,59.53
2022-10-23T21:02:05.581Z,59.82
2022-10-23T21:04:34.745Z,60.61
2022-10-23T21:07:11.566Z,62.16
2022-10-23T21:09:41.297Z,62.91
2022-10-23T21:12:10.318Z,60.41
2022-10-23T21:14:39.259Z,58.42
2022-10-23T21:17:09.476Z,57.47
2022-10-23T21:19:40.058Z,56.77
2022-10-23T21:22:08.817Z,55.81
2022-10-23T21:24:37.642Z,56.07
2022-10-23T21:27:06.645Z,55.83
2022-10-23T21:29:35.527Z,55.56
2022-10-23T21:32:04.636Z,57.73
2022-10-23T21:34:33.520Z,58.00
2022-10-23T21:37:18.603Z,57.05
2022-10-23T21:39:47.816Z,58.38
2022-10-23T21:42:16.525Z,59.07
2022-10-23T21:44:45.429Z,59.51
2022-10-23T21:47:14.771Z,60.86
2022-10-23T21:49:43.625Z,60.31
2022-10-23T21:52:14.000Z,54.29
2022-10-23T21:54:45.243Z,53.28
2022-10-23T21:57:15.551Z,54.66
2022-10-23T21:59:45.106Z,56.44
2022-10-23T22:02:14.128Z,56.10
2022-10-23T22:04:43.108Z,56.89
2022-10-23T22:07:15.716Z,55.66
2022-10-23T22:09:45.189Z,54.13
2022-10-23T22:12:14.090Z,52.19
2022-10-23T22:14:43.503Z,53.46
2022-10-23T22:17:12.163Z,52.29
2022-10-23T22:19:40.962Z,49.46
2022-10-23T22:22:09.862Z,47.38
2022-10-23T22:24:38.735Z,46.06
2022-10-23T22:27:07.350Z,44.18
2022-10-23T22:29:37.056Z,43.28
2022-10-23T22:32:05.972Z,42.26
2022-10-23T22:34:51.728Z,41.48
2022-10-23T22:37:21.867Z,41.01
2022-10-23T22:39:54.182Z,39.33
2022-10-23T22:42:23.275Z,36.23
2022-10-23T22:44:51.849Z,38.93
2022-10-23T22:47:20.868Z,39.53
2022-10-23T22:49:49.487Z,39.63
2022-10-23T22:52:18.461Z,36.32
2022-10-23T22:54:48.617Z,38.67
2022-10-23T22:57:17.853Z,38.12
2022-10-23T22:59:46.485Z,39.93
2022-10-23T23:02:15.472Z,40.29
2022-10-23T23:04:44.799Z,39.74
2022-10-23T23:07:14.214Z,39.88
2022-10-23T23:09:45.809Z,39.85
2022-10-23T23:12:15.982Z,41.17
2022-10-23T23:14:44.888Z,40.45
2022-10-23T23:17:13.742Z,41.36
2022-10-23T23:19:42.729Z,40.54
2022-10-23T23:22:11.382Z,41.61
2022-10-23T23:24:40.460Z,40.64
2022-10-23T23:27:11.108Z,41.63
2022-10-23T23:29:40.035Z,42.58
2022-10-23T23:32:08.729Z,42.01
2022-10-23T23:34:37.672Z,42.00
2022-10-23T23:37:06.298Z,41.99
2022-10-23T23:39:35.160Z,41.85
2022-10-23T23:42:03.804Z,42.42
2022-10-23T23:44:32.757Z,42.34
2022-10-23T23:47:01.531Z,42.40
2022-10-23T23:49:30.335Z,42.25
2022-10-23T23:51:59.120Z,42.74
2022-10-23T23:54:28.113Z,42.49
2022-10-23T23:57:06.628Z,42.97
2022-10-23T23:59:42.634Z,44.43
